sensor_id;sensor_type;location;lat;lon;timestamp;temperature;humidity
23137;DHT22;11737;50.558;7.258;2023-04-07T00:01:22;10.20;99.90
23137;DHT22;11737;50.558;7.258;2023-04-07T00:03:49;10.20;99.90
23137;DHT22;11737;50.558;7.258;2023-04-07T00:06:17;10.20;99.90
23137;DHT22;11737;50.558;7.258;2023-04-07T00:08:44;10.20;99.90
23137;DHT22;11737;50.558;7.258;2023-04-07T00:11:12;10.20;99.90
23137;DHT22;11737;50.558;7.258;2023-04-07T00:13:39;10.20;99.90
23137;DHT22;11737;50.558;7.258;2023-04-07T00:16:07;10.20;99.90
23137;DHT22;11737;50.558;7.258;2023-04-07T00:18:35;10.20;99.90
23137;DHT22;11737;50.558;7.258;2023-04-07T00:21:02;10.20;99.90
23137;DHT22;11737;50.558;7.258;2023-04-07T00:23:30;10.20;99.90
23137;DHT22;11737;50.558;7.258;2023-04-07T00:25:57;10.20;99.90
23137;DHT22;11737;50.558;7.258;2023-04-07T00:28:25;10.20;99.90
23137;DHT22;11737;50.558;7.258;2023-04-07T00:30:52;10.20;99.90
23137;DHT22;11737;50.558;7.258;2023-04-07T00:33:19;10.20;99.90
23137;DHT22;11737;50.558;7.258;2023-04-07T00:35:47;10.20;99.90
23137;DHT22;11737;50.558;7.258;2023-04-07T00:38:14;10.20;99.90
23137;DHT22;11737;50.558;7.258;2023-04-07T00:40:42;10.20;99.90
23137;DHT22;11737;50.558;7.258;2023-04-07T00:43:10;10.20;99.90
23137;DHT22;11737;50.558;7.258;2023-04-07T00:45:37;10.30;99.90
23137;DHT22;11737;50.558;7.258;2023-04-07T00:48:05;10.20;99.90
23137;DHT22;11737;50.558;7.258;2023-04-07T00:50:32;10.20;99.90
23137;DHT22;11737;50.558;7.258;2023-04-07T00:53:00;10.20;99.90
23137;DHT22;11737;50.558;7.258;2023-04-07T00:55:28;10.20;99.90
23137;DHT22;11737;50.558;7.258;2023-04-07T00:57:55;10.20;99.90
23137;DHT22;11737;50.558;7.258;2023-04-07T01:00:23;10.20;99.90
23137;DHT22;11737;50.558;7.258;2023-04-07T01:02:58;10.20;99.90
23137;DHT22;11737;50.558;7.258;2023-04-07T01:05:30;10.20;99.90
23137;DHT22;11737;50.558;7.258;2023-04-07T01:08:23;10.20;99.90
23137;DHT22;11737;50.558;7.258;2023-04-07T01:13:43;10.10;99.90
23137;DHT22;11737;50.558;7.258;2023-04-07T01:16:38;10.10;99.90
23137;DHT22;11737;50.558;7.258;2023-04-07T01:19:57;10.10;99.90
23137;DHT22;11737;50.558;7.258;2023-04-07T01:22:20;10.20;99.90
23137;DHT22;11737;50.558;7.258;2023-04-07T01:25:11;10.20;99.90
23137;DHT22;11737;50.558;7.258;2023-04-07T01:27:51;10.20;99.90
23137;DHT22;11737;50.558;7.258;2023-04-07T01:30:17;10.20;99.90
23137;DHT22;11737;50.558;7.258;2023-04-07T01:32:49;10.10;99.90
23137;DHT22;11737;50.558;7.258;2023-04-07T01:35:17;10.20;99.90
23137;DHT22;11737;50.558;7.258;2023-04-07T01:37:46;10.20;99.90
23137;DHT22;11737;50.558;7.258;2023-04-07T01:40:16;10.20;99.90
23137;DHT22;11737;50.558;7.258;2023-04-07T01:42:44;10.20;99.90
23137;DHT22;11737;50.558;7.258;2023-04-07T01:45:13;10.20;99.90
23137;DHT22;11737;50.558;7.258;2023-04-07T01:50:30;10.20;99.90
23137;DHT22;11737;50.558;7.258;2023-04-07T01:52:58;10.20;99.90
23137;DHT22;11737;50.558;7.258;2023-04-07T01:55:26;10.40;99.90
23137;DHT22;11737;50.558;7.258;2023-04-07T01:57:54;10.40;99.90
23137;DHT22;11737;50.558;7.258;2023-04-07T02:00:22;10.30;99.90
23137;DHT22;11737;50.558;7.258;2023-04-07T02:02:53;10.10;99.90
23137;DHT22;11737;50.558;7.258;2023-04-07T02:05:21;10.00;99.90
23137;DHT22;11737;50.558;7.258;2023-04-07T02:08:00;10.00;99.90
23137;DHT22;11737;50.558;7.258;2023-04-07T02:10:28;10.00;99.90
23137;DHT22;11737;50.558;7.258;2023-04-07T02:12:58;10.10;99.90
23137;DHT22;11737;50.558;7.258;2023-04-07T02:15:27;10.20;99.90
23137;DHT22;11737;50.558;7.258;2023-04-07T02:17:56;10.20;99.90
23137;DHT22;11737;50.558;7.258;2023-04-07T02:20:25;10.20;99.90
23137;DHT22;11737;50.558;7.258;2023-04-07T02:25:41;10.10;99.90
23137;DHT22;11737;50.558;7.258;2023-04-07T02:28:09;10.10;99.90
23137;DHT22;11737;50.558;7.258;2023-04-07T02:30:36;10.10;99.90
23137;DHT22;11737;50.558;7.258;2023-04-07T02:33:04;10.10;99.90
23137;DHT22;11737;50.558;7.258;2023-04-07T02:35:31;10.10;99.90
23137;DHT22;11737;50.558;7.258;2023-04-07T02:37:59;10.10;99.90
23137;DHT22;11737;50.558;7.258;2023-04-07T02:40:26;10.00;99.90
23137;DHT22;11737;50.558;7.258;2023-04-07T02:42:54;10.00;99.90
23137;DHT22;11737;50.558;7.258;2023-04-07T02:45:22;10.00;99.90
23137;DHT22;11737;50.558;7.258;2023-04-07T02:47:49;10.00;99.90
23137;DHT22;11737;50.558;7.258;2023-04-07T02:50:17;10.00;99.90
23137;DHT22;11737;50.558;7.258;2023-04-07T02:52:44;10.00;99.90
23137;DHT22;11737;50.558;7.258;2023-04-07T02:55:12;10.00;99.90
23137;DHT22;11737;50.558;7.258;2023-04-07T02:57:39;10.10;99.90
23137;DHT22;11737;50.558;7.258;2023-04-07T03:00:08;10.00;99.90
23137;DHT22;11737;50.558;7.258;2023-04-07T03:02:35;10.00;99.90
23137;DHT22;11737;50.558;7.258;2023-04-07T03:05:03;10.00;99.90
23137;DHT22;11737;50.558;7.258;2023-04-07T03:07:31;10.10;99.90
23137;DHT22;11737;50.558;7.258;2023-04-07T03:09:58;10.10;99.90
23137;DHT22;11737;50.558;7.258;2023-04-07T03:12:26;10.10;99.90
23137;DHT22;11737;50.558;7.258;2023-04-07T03:14:54;10.00;99.90
23137;DHT22;11737;50.558;7.258;2023-04-07T03:17:21;10.00;99.90
23137;DHT22;11737;50.558;7.258;2023-04-07T03:19:49;10.00;99.90
23137;DHT22;11737;50.558;7.258;2023-04-07T03:22:17;10.00;99.90
23137;DHT22;11737;50.558;7.258;2023-04-07T03:24:44;10.00;99.90
23137;DHT22;11737;50.558;7.258;2023-04-07T03:27:12;10.00;99.90
23137;DHT22;11737;50.558;7.258;2023-04-07T03:29:39;10.00;99.90
23137;DHT22;11737;50.558;7.258;2023-04-07T03:32:07;10.00;99.90
23137;DHT22;11737;50.558;7.258;2023-04-07T03:34:34;10.00;99.90
23137;DHT22;11737;50.558;7.258;2023-04-07T03:37:02;10.00;99.90
23137;DHT22;11737;50.558;7.258;2023-04-07T03:39:29;10.00;99.90
23137;DHT22;11737;50.558;7.258;2023-04-07T03:41:57;9.90;99.90
23137;DHT22;11737;50.558;7.258;2023-04-07T03:44:24;10.00;99.90
23137;DHT22;11737;50.558;7.258;2023-04-07T03:46:52;10.00;99.90
23137;DHT22;11737;50.558;7.258;2023-04-07T03:49:19;10.00;99.90
23137;DHT22;11737;50.558;7.258;2023-04-07T03:51:47;9.90;99.90
23137;DHT22;11737;50.558;7.258;2023-04-07T03:54:15;9.80;99.90
23137;DHT22;11737;50.558;7.258;2023-04-07T03:56:42;9.80;99.90
23137;DHT22;11737;50.558;7.258;2023-04-07T03:59:10;9.80;99.90
23137;DHT22;11737;50.558;7.258;2023-04-07T04:01:37;9.80;99.90
23137;DHT22;11737;50.558;7.258;2023-04-07T04:04:05;9.90;99.90
23137;DHT22;11737;50.558;7.258;2023-04-07T04:06:33;9.90;99.90
23137;DHT22;11737;50.558;7.258;2023-04-07T04:09:00;9.90;99.90
23137;DHT22;11737;50.558;7.258;2023-04-07T04:11:28;9.90;99.90
23137;DHT22;11737;50.558;7.258;2023-04-07T04:13:57;10.00;99.90
23137;DHT22;11737;50.558;7.258;2023-04-07T04:16:24;10.00;99.90
23137;DHT22;11737;50.558;7.258;2023-04-07T04:18:52;9.90;99.90
23137;DHT22;11737;50.558;7.258;2023-04-07T04:21:19;9.90;99.90
23137;DHT22;11737;50.558;7.258;2023-04-07T04:23:46;9.90;99.90
23137;DHT22;11737;50.558;7.258;2023-04-07T04:26:14;9.80;99.90
23137;DHT22;11737;50.558;7.258;2023-04-07T04:28:42;9.90;99.90
23137;DHT22;11737;50.558;7.258;2023-04-07T04:31:09;9.90;99.90
23137;DHT22;11737;50.558;7.258;2023-04-07T04:33:37;9.90;99.90
23137;DHT22;11737;50.558;7.258;2023-04-07T04:36:05;9.90;99.90
23137;DHT22;11737;50.558;7.258;2023-04-07T04:38:33;9.90;99.90
23137;DHT22;11737;50.558;7.258;2023-04-07T04:41:00;10.00;99.90
23137;DHT22;11737;50.558;7.258;2023-04-07T04:43:28;10.10;99.90
23137;DHT22;11737;50.558;7.258;2023-04-07T04:45:56;10.30;99.90
23137;DHT22;11737;50.558;7.258;2023-04-07T04:48:23;10.50;99.90
23137;DHT22;11737;50.558;7.258;2023-04-07T04:50:51;10.60;99.90
23137;DHT22;11737;50.558;7.258;2023-04-07T04:53:18;10.70;99.90
23137;DHT22;11737;50.558;7.258;2023-04-07T04:55:46;10.90;99.90
23137;DHT22;11737;50.558;7.258;2023-04-07T04:58:15;10.90;99.90
23137;DHT22;11737;50.558;7.258;2023-04-07T05:00:42;10.90;99.90
23137;DHT22;11737;50.558;7.258;2023-04-07T05:03:10;11.00;99.90
23137;DHT22;11737;50.558;7.258;2023-04-07T05:05:37;11.00;99.90
23137;DHT22;11737;50.558;7.258;2023-04-07T05:08:05;11.00;99.90
23137;DHT22;11737;50.558;7.258;2023-04-07T05:10:36;11.00;99.90
23137;DHT22;11737;50.558;7.258;2023-04-07T05:13:02;11.00;99.90
23137;DHT22;11737;50.558;7.258;2023-04-07T05:15:29;11.00;99.90
23137;DHT22;11737;50.558;7.258;2023-04-07T05:17:57;10.90;99.90
23137;DHT22;11737;50.558;7.258;2023-04-07T05:20:24;10.90;99.90
23137;DHT22;11737;50.558;7.258;2023-04-07T05:22:52;10.90;99.90
23137;DHT22;11737;50.558;7.258;2023-04-07T05:25:19;10.80;99.90
23137;DHT22;11737;50.558;7.258;2023-04-07T05:27:47;10.80;99.90
23137;DHT22;11737;50.558;7.258;2023-04-07T05:30:14;10.70;99.90
23137;DHT22;11737;50.558;7.258;2023-04-07T05:32:42;10.70;99.90
23137;DHT22;11737;50.558;7.258;2023-04-07T05:35:09;10.70;99.90
23137;DHT22;11737;50.558;7.258;2023-04-07T05:37:37;10.70;99.90
23137;DHT22;11737;50.558;7.258;2023-04-07T05:40:06;10.70;99.90
23137;DHT22;11737;50.558;7.258;2023-04-07T05:42:33;10.70;99.90
23137;DHT22;11737;50.558;7.258;2023-04-07T05:45:01;10.70;99.90
23137;DHT22;11737;50.558;7.258;2023-04-07T05:47:28;10.70;99.90
23137;DHT22;11737;50.558;7.258;2023-04-07T05:49:56;10.70;99.90
23137;DHT22;11737;50.558;7.258;2023-04-07T05:52:24;10.70;99.90
23137;DHT22;11737;50.558;7.258;2023-04-07T05:54:51;10.80;99.90
23137;DHT22;11737;50.558;7.258;2023-04-07T05:57:18;10.80;99.90
23137;DHT22;11737;50.558;7.258;2023-04-07T05:59:46;10.80;99.90
23137;DHT22;11737;50.558;7.258;2023-04-07T06:02:14;10.80;99.90
23137;DHT22;11737;50.558;7.258;2023-04-07T06:04:41;10.90;99.90
23137;DHT22;11737;50.558;7.258;2023-04-07T06:07:09;10.80;99.90
23137;DHT22;11737;50.558;7.258;2023-04-07T06:09:36;10.80;99.90
23137;DHT22;11737;50.558;7.258;2023-04-07T06:12:04;10.80;99.90
23137;DHT22;11737;50.558;7.258;2023-04-07T06:14:32;10.80;99.90
23137;DHT22;11737;50.558;7.258;2023-04-07T06:17:00;10.80;99.90
23137;DHT22;11737;50.558;7.258;2023-04-07T06:19:27;10.80;99.90
23137;DHT22;11737;50.558;7.258;2023-04-07T06:21:55;10.80;99.90
23137;DHT22;11737;50.558;7.258;2023-04-07T06:24:22;10.90;99.90
23137;DHT22;11737;50.558;7.258;2023-04-07T06:29:39;10.90;99.90
23137;DHT22;11737;50.558;7.258;2023-04-07T06:32:06;10.90;99.90
23137;DHT22;11737;50.558;7.258;2023-04-07T06:34:34;10.80;99.90
23137;DHT22;11737;50.558;7.258;2023-04-07T06:37:01;10.80;99.90
23137;DHT22;11737;50.558;7.258;2023-04-07T06:39:31;10.80;99.90
23137;DHT22;11737;50.558;7.258;2023-04-07T06:41:58;10.90;99.90
23137;DHT22;11737;50.558;7.258;2023-04-07T06:44:27;10.90;99.90
23137;DHT22;11737;50.558;7.258;2023-04-07T06:46:54;10.90;99.90
23137;DHT22;11737;50.558;7.258;2023-04-07T06:49:22;11.00;99.90
23137;DHT22;11737;50.558;7.258;2023-04-07T06:51:49;11.00;99.90
23137;DHT22;11737;50.558;7.258;2023-04-07T06:54:17;11.10;99.90
23137;DHT22;11737;50.558;7.258;2023-04-07T06:56:44;11.10;99.90
23137;DHT22;11737;50.558;7.258;2023-04-07T06:59:12;11.10;99.90
23137;DHT22;11737;50.558;7.258;2023-04-07T07:01:39;11.10;99.90
23137;DHT22;11737;50.558;7.258;2023-04-07T07:04:07;11.20;99.90
23137;DHT22;11737;50.558;7.258;2023-04-07T07:06:35;11.20;99.90
23137;DHT22;11737;50.558;7.258;2023-04-07T07:09:03;11.20;99.90
23137;DHT22;11737;50.558;7.258;2023-04-07T07:11:30;11.20;99.90
23137;DHT22;11737;50.558;7.258;2023-04-07T07:13:58;11.30;99.90
23137;DHT22;11737;50.558;7.258;2023-04-07T07:16:25;11.20;99.90
23137;DHT22;11737;50.558;7.258;2023-04-07T07:18:54;11.10;99.90
23137;DHT22;11737;50.558;7.258;2023-04-07T07:21:22;11.20;99.90
23137;DHT22;11737;50.558;7.258;2023-04-07T07:23:49;11.30;99.90
23137;DHT22;11737;50.558;7.258;2023-04-07T07:26:17;11.20;99.90
23137;DHT22;11737;50.558;7.258;2023-04-07T07:28:44;11.20;99.90
23137;DHT22;11737;50.558;7.258;2023-04-07T07:31:13;11.20;99.90
23137;DHT22;11737;50.558;7.258;2023-04-07T07:33:41;11.20;99.90
23137;DHT22;11737;50.558;7.258;2023-04-07T07:36:09;11.20;99.90
23137;DHT22;11737;50.558;7.258;2023-04-07T07:38:37;11.20;99.90
23137;DHT22;11737;50.558;7.258;2023-04-07T07:41:06;11.30;99.90
23137;DHT22;11737;50.558;7.258;2023-04-07T07:43:33;11.20;99.90
23137;DHT22;11737;50.558;7.258;2023-04-07T07:46:03;11.20;99.90
23137;DHT22;11737;50.558;7.258;2023-04-07T07:48:30;11.20;99.90
23137;DHT22;11737;50.558;7.258;2023-04-07T07:50:58;11.20;99.90
23137;DHT22;11737;50.558;7.258;2023-04-07T07:53:25;11.20;99.90
23137;DHT22;11737;50.558;7.258;2023-04-07T07:55:53;11.10;99.90
23137;DHT22;11737;50.558;7.258;2023-04-07T07:58:21;11.20;99.90
23137;DHT22;11737;50.558;7.258;2023-04-07T08:00:49;11.20;99.90
23137;DHT22;11737;50.558;7.258;2023-04-07T08:03:16;11.30;99.90
23137;DHT22;11737;50.558;7.258;2023-04-07T08:05:45;11.20;99.90
23137;DHT22;11737;50.558;7.258;2023-04-07T08:08:13;11.20;99.90
23137;DHT22;11737;50.558;7.258;2023-04-07T08:10:41;11.10;99.90
23137;DHT22;11737;50.558;7.258;2023-04-07T08:13:08;11.10;99.90
23137;DHT22;11737;50.558;7.258;2023-04-07T08:15:36;11.10;99.90
23137;DHT22;11737;50.558;7.258;2023-04-07T08:18:03;11.00;99.90
23137;DHT22;11737;50.558;7.258;2023-04-07T08:20:33;10.90;99.90
23137;DHT22;11737;50.558;7.258;2023-04-07T08:23:01;10.90;99.90
23137;DHT22;11737;50.558;7.258;2023-04-07T08:25:29;10.90;99.90
23137;DHT22;11737;50.558;7.258;2023-04-07T08:27:56;10.90;99.90
23137;DHT22;11737;50.558;7.258;2023-04-07T08:30:24;10.80;99.90
23137;DHT22;11737;50.558;7.258;2023-04-07T08:32:51;10.90;99.90
23137;DHT22;11737;50.558;7.258;2023-04-07T08:35:19;10.90;99.90
23137;DHT22;11737;50.558;7.258;2023-04-07T08:37:46;11.00;99.90
23137;DHT22;11737;50.558;7.258;2023-04-07T08:40:15;11.00;99.90
23137;DHT22;11737;50.558;7.258;2023-04-07T08:42:45;11.00;99.90
23137;DHT22;11737;50.558;7.258;2023-04-07T08:45:16;11.00;99.90
23137;DHT22;11737;50.558;7.258;2023-04-07T08:47:46;11.00;99.90
23137;DHT22;11737;50.558;7.258;2023-04-07T08:50:14;11.00;99.90
23137;DHT22;11737;50.558;7.258;2023-04-07T08:52:45;10.90;99.90
23137;DHT22;11737;50.558;7.258;2023-04-07T08:55:14;10.90;99.90
23137;DHT22;11737;50.558;7.258;2023-04-07T08:57:42;10.80;99.90
23137;DHT22;11737;50.558;7.258;2023-04-07T09:00:11;10.90;99.90
23137;DHT22;11737;50.558;7.258;2023-04-07T09:02:41;10.90;99.90
23137;DHT22;11737;50.558;7.258;2023-04-07T09:05:13;10.90;99.90
23137;DHT22;11737;50.558;7.258;2023-04-07T09:07:41;10.90;99.90
23137;DHT22;11737;50.558;7.258;2023-04-07T09:10:11;10.90;99.90
23137;DHT22;11737;50.558;7.258;2023-04-07T09:12:39;10.80;99.90
23137;DHT22;11737;50.558;7.258;2023-04-07T09:15:07;10.90;99.90
23137;DHT22;11737;50.558;7.258;2023-04-07T09:17:35;10.90;99.90
23137;DHT22;11737;50.558;7.258;2023-04-07T09:20:02;10.90;99.90
23137;DHT22;11737;50.558;7.258;2023-04-07T09:22:41;11.00;99.90
23137;DHT22;11737;50.558;7.258;2023-04-07T09:25:11;11.10;99.90
23137;DHT22;11737;50.558;7.258;2023-04-07T09:27:39;11.10;99.90
23137;DHT22;11737;50.558;7.258;2023-04-07T09:30:13;11.10;99.90
23137;DHT22;11737;50.558;7.258;2023-04-07T09:32:41;11.10;99.90
23137;DHT22;11737;50.558;7.258;2023-04-07T09:35:09;11.10;99.90
23137;DHT22;11737;50.558;7.258;2023-04-07T09:37:37;11.10;99.90
23137;DHT22;11737;50.558;7.258;2023-04-07T09:40:05;11.20;99.90
23137;DHT22;11737;50.558;7.258;2023-04-07T09:42:33;11.30;99.90
23137;DHT22;11737;50.558;7.258;2023-04-07T09:45:02;11.30;99.90
23137;DHT22;11737;50.558;7.258;2023-04-07T09:47:31;11.40;99.90
23137;DHT22;11737;50.558;7.258;2023-04-07T09:49:59;11.30;99.90
23137;DHT22;11737;50.558;7.258;2023-04-07T09:52:48;11.40;99.90
23137;DHT22;11737;50.558;7.258;2023-04-07T09:55:20;11.40;99.90
23137;DHT22;11737;50.558;7.258;2023-04-07T09:57:52;11.60;99.90
23137;DHT22;11737;50.558;7.258;2023-04-07T10:03:10;11.70;99.90
23137;DHT22;11737;50.558;7.258;2023-04-07T10:05:38;11.80;99.90
23137;DHT22;11737;50.558;7.258;2023-04-07T10:08:06;12.00;99.90
23137;DHT22;11737;50.558;7.258;2023-04-07T10:10:34;12.00;99.90
23137;DHT22;11737;50.558;7.258;2023-04-07T10:13:04;12.10;99.90
23137;DHT22;11737;50.558;7.258;2023-04-07T10:15:32;12.20;99.90
23137;DHT22;11737;50.558;7.258;2023-04-07T10:18:01;12.30;99.90
23137;DHT22;11737;50.558;7.258;2023-04-07T10:20:30;12.30;99.90
23137;DHT22;11737;50.558;7.258;2023-04-07T10:23:01;12.40;99.90
23137;DHT22;11737;50.558;7.258;2023-04-07T10:25:29;12.40;99.90
23137;DHT22;11737;50.558;7.258;2023-04-07T10:28:01;12.50;99.90
23137;DHT22;11737;50.558;7.258;2023-04-07T10:30:30;12.50;99.90
23137;DHT22;11737;50.558;7.258;2023-04-07T10:32:59;12.50;99.90
23137;DHT22;11737;50.558;7.258;2023-04-07T10:35:26;12.40;99.90
23137;DHT22;11737;50.558;7.258;2023-04-07T10:38:11;12.40;99.90
23137;DHT22;11737;50.558;7.258;2023-04-07T10:40:40;12.40;99.90
23137;DHT22;11737;50.558;7.258;2023-04-07T10:43:08;12.40;99.90
23137;DHT22;11737;50.558;7.258;2023-04-07T10:45:51;12.50;99.90
23137;DHT22;11737;50.558;7.258;2023-04-07T10:48:20;12.40;99.90
23137;DHT22;11737;50.558;7.258;2023-04-07T10:53:35;12.50;99.90
23137;DHT22;11737;50.558;7.258;2023-04-07T10:56:04;12.50;99.90
23137;DHT22;11737;50.558;7.258;2023-04-07T10:58:32;12.60;99.90
23137;DHT22;11737;50.558;7.258;2023-04-07T11:03:37;12.50;99.90
23137;DHT22;11737;50.558;7.258;2023-04-07T11:06:12;12.60;99.90
23137;DHT22;11737;50.558;7.258;2023-04-07T11:08:42;12.60;99.90
23137;DHT22;11737;50.558;7.258;2023-04-07T11:11:12;12.60;99.90
23137;DHT22;11737;50.558;7.258;2023-04-07T11:13:47;12.70;99.90
23137;DHT22;11737;50.558;7.258;2023-04-07T11:16:17;12.70;99.90
23137;DHT22;11737;50.558;7.258;2023-04-07T11:18:46;12.70;99.90
23137;DHT22;11737;50.558;7.258;2023-04-07T11:21:18;12.80;99.90
23137;DHT22;11737;50.558;7.258;2023-04-07T11:24:06;12.80;99.90
23137;DHT22;11737;50.558;7.258;2023-04-07T11:29:31;12.90;99.90
23137;DHT22;11737;50.558;7.258;2023-04-07T11:32:00;12.90;99.90
23137;DHT22;11737;50.558;7.258;2023-04-07T11:34:33;13.00;99.90
23137;DHT22;11737;50.558;7.258;2023-04-07T11:37:24;12.90;99.90
23137;DHT22;11737;50.558;7.258;2023-04-07T11:42:42;12.60;99.90
23137;DHT22;11737;50.558;7.258;2023-04-07T11:48:26;12.30;99.90
23137;DHT22;11737;50.558;7.258;2023-04-07T11:50:54;12.30;99.90
23137;DHT22;11737;50.558;7.258;2023-04-07T11:53:29;12.20;99.90
23137;DHT22;11737;50.558;7.258;2023-04-07T11:56:02;12.30;99.90
23137;DHT22;11737;50.558;7.258;2023-04-07T11:58:30;12.50;99.90
23137;DHT22;11737;50.558;7.258;2023-04-07T12:00:59;12.80;99.90
23137;DHT22;11737;50.558;7.258;2023-04-07T12:03:28;13.10;99.90
23137;DHT22;11737;50.558;7.258;2023-04-07T12:05:56;13.50;99.90
23137;DHT22;11737;50.558;7.258;2023-04-07T12:08:41;13.80;99.90
23137;DHT22;11737;50.558;7.258;2023-04-07T12:11:09;14.10;99.90
23137;DHT22;11737;50.558;7.258;2023-04-07T12:13:37;14.50;99.90
23137;DHT22;11737;50.558;7.258;2023-04-07T12:16:05;14.70;99.90
23137;DHT22;11737;50.558;7.258;2023-04-07T12:18:32;14.90;99.90
23137;DHT22;11737;50.558;7.258;2023-04-07T12:21:00;14.90;99.90
23137;DHT22;11737;50.558;7.258;2023-04-07T12:23:28;15.10;99.90
23137;DHT22;11737;50.558;7.258;2023-04-07T12:25:55;15.10;99.90
23137;DHT22;11737;50.558;7.258;2023-04-07T12:28:23;15.00;99.90
23137;DHT22;11737;50.558;7.258;2023-04-07T12:30:50;15.10;99.90
23137;DHT22;11737;50.558;7.258;2023-04-07T12:33:18;15.00;99.90
23137;DHT22;11737;50.558;7.258;2023-04-07T12:35:46;14.70;99.90
23137;DHT22;11737;50.558;7.258;2023-04-07T12:38:13;14.50;99.90
23137;DHT22;11737;50.558;7.258;2023-04-07T12:40:41;14.40;99.90
23137;DHT22;11737;50.558;7.258;2023-04-07T12:43:09;14.50;99.90
23137;DHT22;11737;50.558;7.258;2023-04-07T12:45:36;14.40;99.90
23137;DHT22;11737;50.558;7.258;2023-04-07T12:48:04;14.50;99.90
23137;DHT22;11737;50.558;7.258;2023-04-07T12:50:32;14.60;99.90
23137;DHT22;11737;50.558;7.258;2023-04-07T12:53:01;14.90;99.90
23137;DHT22;11737;50.558;7.258;2023-04-07T12:55:31;15.00;99.90
23137;DHT22;11737;50.558;7.258;2023-04-07T12:57:59;14.90;99.90
23137;DHT22;11737;50.558;7.258;2023-04-07T13:00:27;14.90;99.90
23137;DHT22;11737;50.558;7.258;2023-04-07T13:02:54;14.70;99.90
23137;DHT22;11737;50.558;7.258;2023-04-07T13:05:22;14.50;99.90
23137;DHT22;11737;50.558;7.258;2023-04-07T13:07:49;14.00;99.90
23137;DHT22;11737;50.558;7.258;2023-04-07T13:10:17;13.70;99.90
23137;DHT22;11737;50.558;7.258;2023-04-07T13:12:44;13.80;99.90
23137;DHT22;11737;50.558;7.258;2023-04-07T13:15:13;13.90;99.90
23137;DHT22;11737;50.558;7.258;2023-04-07T13:17:41;14.00;99.90
23137;DHT22;11737;50.558;7.258;2023-04-07T13:20:08;14.10;99.90
23137;DHT22;11737;50.558;7.258;2023-04-07T13:22:36;14.20;99.90
23137;DHT22;11737;50.558;7.258;2023-04-07T13:25:04;14.20;99.90
23137;DHT22;11737;50.558;7.258;2023-04-07T13:27:32;14.40;99.90
23137;DHT22;11737;50.558;7.258;2023-04-07T13:29:59;14.40;99.90
23137;DHT22;11737;50.558;7.258;2023-04-07T13:32:26;14.30;99.90
23137;DHT22;11737;50.558;7.258;2023-04-07T13:34:54;14.20;99.90
23137;DHT22;11737;50.558;7.258;2023-04-07T13:37:22;14.20;99.90
23137;DHT22;11737;50.558;7.258;2023-04-07T13:39:49;14.30;99.90
23137;DHT22;11737;50.558;7.258;2023-04-07T13:42:17;14.50;99.90
23137;DHT22;11737;50.558;7.258;2023-04-07T13:44:46;14.70;99.90
23137;DHT22;11737;50.558;7.258;2023-04-07T13:47:16;14.90;99.90
23137;DHT22;11737;50.558;7.258;2023-04-07T13:49:47;14.90;99.90
23137;DHT22;11737;50.558;7.258;2023-04-07T13:52:15;14.90;99.90
23137;DHT22;11737;50.558;7.258;2023-04-07T13:54:43;14.90;99.90
23137;DHT22;11737;50.558;7.258;2023-04-07T13:57:11;14.90;99.90
23137;DHT22;11737;50.558;7.258;2023-04-07T13:59:40;14.60;99.90
23137;DHT22;11737;50.558;7.258;2023-04-07T14:02:07;14.40;99.90
23137;DHT22;11737;50.558;7.258;2023-04-07T14:04:35;14.40;99.90
23137;DHT22;11737;50.558;7.258;2023-04-07T14:07:02;14.50;99.90
23137;DHT22;11737;50.558;7.258;2023-04-07T14:09:30;14.50;99.90
23137;DHT22;11737;50.558;7.258;2023-04-07T14:11:57;14.40;99.90
23137;DHT22;11737;50.558;7.258;2023-04-07T14:14:25;14.40;99.90
23137;DHT22;11737;50.558;7.258;2023-04-07T14:16:52;14.40;99.90
23137;DHT22;11737;50.558;7.258;2023-04-07T14:19:20;14.30;99.90
23137;DHT22;11737;50.558;7.258;2023-04-07T14:21:49;14.30;99.90
23137;DHT22;11737;50.558;7.258;2023-04-07T14:24:17;14.10;99.90
23137;DHT22;11737;50.558;7.258;2023-04-07T14:26:45;13.80;99.90
23137;DHT22;11737;50.558;7.258;2023-04-07T14:29:13;13.70;99.90
23137;DHT22;11737;50.558;7.258;2023-04-07T14:31:41;13.70;99.90
23137;DHT22;11737;50.558;7.258;2023-04-07T14:34:09;13.80;99.90
23137;DHT22;11737;50.558;7.258;2023-04-07T14:36:36;13.90;99.90
23137;DHT22;11737;50.558;7.258;2023-04-07T14:39:04;14.20;99.90
23137;DHT22;11737;50.558;7.258;2023-04-07T14:41:31;14.40;99.90
23137;DHT22;11737;50.558;7.258;2023-04-07T14:43:59;14.60;99.90
23137;DHT22;11737;50.558;7.258;2023-04-07T14:46:26;14.70;99.90
23137;DHT22;11737;50.558;7.258;2023-04-07T14:48:54;14.60;99.90
23137;DHT22;11737;50.558;7.258;2023-04-07T14:51:24;14.70;99.90
23137;DHT22;11737;50.558;7.258;2023-04-07T14:53:51;14.80;99.90
23137;DHT22;11737;50.558;7.258;2023-04-07T14:56:20;15.00;99.90
23137;DHT22;11737;50.558;7.258;2023-04-07T14:58:48;15.20;99.90
23137;DHT22;11737;50.558;7.258;2023-04-07T15:01:16;15.30;99.90
23137;DHT22;11737;50.558;7.258;2023-04-07T15:03:44;15.30;99.90
23137;DHT22;11737;50.558;7.258;2023-04-07T15:06:12;15.00;99.90
23137;DHT22;11737;50.558;7.258;2023-04-07T15:08:41;14.70;99.90
23137;DHT22;11737;50.558;7.258;2023-04-07T15:11:10;14.60;99.90
23137;DHT22;11737;50.558;7.258;2023-04-07T15:13:37;14.70;99.90
23137;DHT22;11737;50.558;7.258;2023-04-07T15:16:07;14.80;99.90
23137;DHT22;11737;50.558;7.258;2023-04-07T15:18:34;14.80;99.90
23137;DHT22;11737;50.558;7.258;2023-04-07T15:21:02;15.00;99.90
23137;DHT22;11737;50.558;7.258;2023-04-07T15:23:29;15.00;99.90
23137;DHT22;11737;50.558;7.258;2023-04-07T15:25:57;15.10;99.90
23137;DHT22;11737;50.558;7.258;2023-04-07T15:28:24;15.20;99.90
23137;DHT22;11737;50.558;7.258;2023-04-07T15:30:52;15.30;99.90
23137;DHT22;11737;50.558;7.258;2023-04-07T15:33:19;15.20;99.90
23137;DHT22;11737;50.558;7.258;2023-04-07T15:42:17;15.40;99.90
23137;DHT22;11737;50.558;7.258;2023-04-07T15:44:45;15.20;99.90
23137;DHT22;11737;50.558;7.258;2023-04-07T15:47:12;15.10;99.90
23137;DHT22;11737;50.558;7.258;2023-04-07T15:49:40;15.00;99.90
23137;DHT22;11737;50.558;7.258;2023-04-07T15:52:07;14.70;99.90
23137;DHT22;11737;50.558;7.258;2023-04-07T15:54:36;14.60;99.90
23137;DHT22;11737;50.558;7.258;2023-04-07T15:57:04;14.40;99.90
23137;DHT22;11737;50.558;7.258;2023-04-07T15:59:31;14.10;99.90
23137;DHT22;11737;50.558;7.258;2023-04-07T16:02:00;13.90;99.90
23137;DHT22;11737;50.558;7.258;2023-04-07T16:04:28;13.70;99.90
23137;DHT22;11737;50.558;7.258;2023-04-07T16:06:55;13.40;99.90
23137;DHT22;11737;50.558;7.258;2023-04-07T16:09:23;13.20;99.90
23137;DHT22;11737;50.558;7.258;2023-04-07T16:11:51;13.10;99.90
23137;DHT22;11737;50.558;7.258;2023-04-07T16:14:20;13.00;99.90
23137;DHT22;11737;50.558;7.258;2023-04-07T16:16:47;12.80;99.90